Time;durP1;ratioP1;P1;durP2;ratioP2;P2;SDS_P1;SDS_P2;PMS_P1;PMS_P2;Temp;Humidity;BMP_temperature;BMP_pressure;BME280_temperature;BME280_humidity;BME280_pressure;Samples;Min_cycle;Max_cycle;Signal;HPM_P1;HPM_P2
2022/02/17 00:01:19;;;;;;;10.85;6.13;;;;;;;;;;5055938;28;20439;-81
2022/02/17 00:03:45;;;;;;;10.65;5.63;;;;;;;;;;5073649;28;20078;-81
2022/02/17 00:06:11;;;;;;;10.38;5.38;;;;;;;;;;5055715;28;20024;-88
2022/02/17 00:08:37;;;;;;;8.60;5.28;;;;;;;;;;5056628;28;20078;-81
2022/02/17 00:11:03;;;;;;;9.05;5.72;;;;;;;;;;5055585;28;20028;-81
2022/02/17 00:13:30;;;;;;;12.18;6.13;;;;;;;;;;5055813;28;20362;-81
2022/02/17 00:15:57;;;;;;;13.13;6.30;;;;;;;;;;5055554;28;20064;-81
2022/02/17 00:18:23;;;;;;;10.20;5.93;;;;;;;;;;5055668;28;20099;-79
2022/02/17 00:20:50;;;;;;;11.15;6.35;;;;;;;;;;5055661;28;20468;-81
2022/02/17 00:23:16;;;;;;;10.88;6.30;;;;;;;;;;5055926;28;20021;-80
2022/02/17 00:25:42;;;;;;;10.98;6.18;;;;;;;;;;5073630;28;20040;-80
2022/02/17 00:28:09;;;;;;;10.85;5.63;;;;;;;;;;5055765;28;20056;-81
2022/02/17 00:30:35;;;;;;;10.63;6.07;;;;;;;;;;5055333;28;20032;-79
2022/02/17 00:33:01;;;;;;;10.25;6.07;;;;;;;;;;5073158;28;20062;-80
2022/02/17 00:35:30;;;;;;;10.38;5.82;;;;;;;;;;5055330;28;20032;-80
2022/02/17 00:37:56;;;;;;;8.30;4.97;;;;;;;;;;5055032;28;20028;-80
2022/02/17 00:40:22;;;;;;;11.68;5.75;;;;;;;;;;5055184;28;20032;-80
2022/02/17 00:42:48;;;;;;;9.00;5.47;;;;;;;;;;5055167;28;20091;-78
2022/02/17 00:45:15;;;;;;;9.73;5.45;;;;;;;;;;5055255;28;20059;-81
2022/02/17 00:47:41;;;;;;;12.10;5.22;;;;;;;;;;5054806;28;20029;-81
2022/02/17 00:50:07;;;;;;;9.90;5.45;;;;;;;;;;5055129;28;20025;-81
2022/02/17 00:52:34;;;;;;;11.02;5.40;;;;;;;;;;5073019;28;20032;-80
2022/02/17 00:55:00;;;;;;;9.88;5.35;;;;;;;;;;5054925;28;20025;-81
2022/02/17 00:57:26;;;;;;;11.98;5.20;;;;;;;;;;5055024;28;20036;-81
2022/02/17 00:59:52;;;;;;;8.23;5.00;;;;;;;;;;5055146;28;20074;-81
2022/02/17 01:02:18;;;;;;;12.52;5.53;;;;;;;;;;5054983;28;20043;-80
2022/02/17 01:04:44;;;;;;;10.30;5.70;;;;;;;;;;5054700;28;20032;-79
2022/02/17 01:07:10;;;;;;;10.35;5.82;;;;;;;;;;5054947;28;20056;-81
2022/02/17 01:09:37;;;;;;;11.30;5.50;;;;;;;;;;5054884;28;20090;-81
2022/02/17 01:12:03;;;;;;;9.18;4.88;;;;;;;;;;5058381;28;20016;-81
2022/02/17 01:14:29;;;;;;;11.05;5.68;;;;;;;;;;5058701;28;20074;-82
2022/02/17 01:16:55;;;;;;;12.07;5.60;;;;;;;;;;5058457;28;20832;-81
2022/02/17 01:19:22;;;;;;;9.63;5.35;;;;;;;;;;5077105;28;20029;-81
2022/02/17 01:21:48;;;;;;;10.90;5.60;;;;;;;;;;5059553;28;20052;-81
2022/02/17 01:24:15;;;;;;;10.10;5.45;;;;;;;;;;5063552;28;20469;-81
2022/02/17 01:26:41;;;;;;;9.48;5.13;;;;;;;;;;5059969;28;20024;-80
2022/02/17 01:29:07;;;;;;;10.13;5.18;;;;;;;;;;5058358;28;20112;-81
2022/02/17 01:31:35;;;;;;;10.85;5.80;;;;;;;;;;5077451;28;20020;-80
2022/02/17 01:34:01;;;;;;;9.48;5.50;;;;;;;;;;5058454;28;20035;-81
2022/02/17 01:36:27;;;;;;;9.63;5.70;;;;;;;;;;5058204;28;20032;-81
2022/02/17 01:38:55;;;;;;;10.43;5.68;;;;;;;;;;5058311;28;20029;-82
2022/02/17 01:41:22;;;;;;;10.68;5.65;;;;;;;;;;5058076;28;20024;-81
2022/02/17 01:43:51;;;;;;;10.07;5.38;;;;;;;;;;5076599;28;20028;-81
2022/02/17 01:46:32;;;;;;;11.18;5.47;;;;;;;;;;5057966;28;20116;-82
2022/02/17 01:49:00;;;;;;;11.98;6.13;;;;;;;;;;5058737;28;20043;-81
2022/02/17 01:51:26;;;;;;;11.80;5.95;;;;;;;;;;5060628;28;20033;-79
2022/02/17 01:53:52;;;;;;;11.43;6.07;;;;;;;;;;5060488;28;20024;-87
2022/02/17 01:56:18;;;;;;;10.85;6.22;;;;;;;;;;5058765;28;20025;-81
2022/02/17 01:58:44;;;;;;;14.77;6.88;;;;;;;;;;5058230;28;20035;-79
2022/02/17 02:01:12;;;;;;;13.45;6.80;;;;;;;;;;5057859;28;20028;-82
2022/02/17 02:03:38;;;;;;;11.52;7.10;;;;;;;;;;5057977;28;20056;-81
2022/02/17 02:06:05;;;;;;;14.32;7.55;;;;;;;;;;5057982;28;20061;-82
2022/02/17 02:08:31;;;;;;;14.55;6.95;;;;;;;;;;5075771;28;20025;-81
2022/02/17 02:10:57;;;;;;;11.55;6.72;;;;;;;;;;5057354;28;20037;-84
2022/02/17 02:13:23;;;;;;;11.63;6.78;;;;;;;;;;5058056;28;20025;-82
2022/02/17 02:15:54;;;;;;;15.07;7.55;;;;;;;;;;5057343;28;20049;-87
2022/02/17 02:18:21;;;;;;;13.95;7.20;;;;;;;;;;5057255;28;20384;-82
2022/02/17 02:20:47;;;;;;;16.23;7.80;;;;;;;;;;5075466;28;20100;-82
2022/02/17 02:23:14;;;;;;;13.52;7.80;;;;;;;;;;5057698;28;20016;-82
2022/02/17 02:25:47;;;;;;;16.00;8.40;;;;;;;;;;5075639;28;20031;-82
2022/02/17 02:28:24;;;;;;;18.38;8.50;;;;;;;;;;5057360;28;20032;-82
2022/02/17 02:30:51;;;;;;;15.07;8.57;;;;;;;;;;5057716;28;20060;-82
2022/02/17 02:33:17;;;;;;;12.57;7.82;;;;;;;;;;5057441;28;20540;-85
2022/02/17 02:35:44;;;;;;;15.40;8.13;;;;;;;;;;5057313;28;20029;-82
2022/02/17 02:38:11;;;;;;;12.32;7.20;;;;;;;;;;5075491;28;20047;-83
2022/02/17 02:40:37;;;;;;;18.50;7.70;;;;;;;;;;5075337;28;20484;-82
2022/02/17 02:43:04;;;;;;;15.68;7.65;;;;;;;;;;5057252;28;20021;-80
2022/02/17 02:45:31;;;;;;;11.05;7.32;;;;;;;;;;5057328;28;20071;-82
2022/02/17 02:47:58;;;;;;;12.55;7.00;;;;;;;;;;5057647;28;20031;-82
2022/02/17 02:50:24;;;;;;;10.15;6.22;;;;;;;;;;5075382;28;20089;-82
2022/02/17 02:52:52;;;;;;;13.68;7.13;;;;;;;;;;5058334;28;20027;-81
2022/02/17 02:55:18;;;;;;;12.43;7.15;;;;;;;;;;5057166;28;20047;-82
2022/02/17 02:57:44;;;;;;;12.60;6.90;;;;;;;;;;5074720;28;20055;-81
2022/02/17 03:00:11;;;;;;;13.50;6.82;;;;;;;;;;5075139;28;20459;-82
2022/02/17 03:02:37;;;;;;;11.98;6.70;;;;;;;;;;5074520;28;20052;-82
2022/02/17 03:05:03;;;;;;;12.55;7.60;;;;;;;;;;5056711;28;20127;-82
2022/02/17 03:07:30;;;;;;;14.55;6.95;;;;;;;;;;5056656;28;20074;-82
2022/02/17 03:09:56;;;;;;;11.75;6.45;;;;;;;;;;5074296;28;20075;-81
2022/02/17 03:12:22;;;;;;;12.32;6.82;;;;;;;;;;5074552;28;20016;-84
2022/02/17 03:14:48;;;;;;;12.88;7.15;;;;;;;;;;5074101;28;20457;-82
2022/02/17 03:17:14;;;;;;;12.63;7.40;;;;;;;;;;5056339;28;20027;-82
2022/02/17 03:19:41;;;;;;;13.68;6.78;;;;;;;;;;5056456;28;20056;-82
2022/02/17 03:22:07;;;;;;;12.07;6.80;;;;;;;;;;5074073;28;20469;-83
2022/02/17 03:24:33;;;;;;;15.07;7.72;;;;;;;;;;5056441;28;20481;-82
2022/02/17 03:26:59;;;;;;;14.75;7.43;;;;;;;;;;5056136;28;20020;-82
2022/02/17 03:29:26;;;;;;;14.95;7.15;;;;;;;;;;5055934;28;20489;-80
2022/02/17 03:31:58;;;;;;;13.63;6.88;;;;;;;;;;5073631;28;20025;-79
2022/02/17 03:34:25;;;;;;;11.30;6.78;;;;;;;;;;5055233;28;20614;-83
2022/02/17 03:36:51;;;;;;;13.85;7.10;;;;;;;;;;5073964;28;20477;-80
2022/02/17 03:39:17;;;;;;;13.82;7.05;;;;;;;;;;5075664;28;20048;-80
2022/02/17 03:41:45;;;;;;;14.13;6.97;;;;;;;;;;5056477;28;20032;-80
2022/02/17 03:44:11;;;;;;;12.82;5.97;;;;;;;;;;5055644;28;20056;-81
2022/02/17 03:46:37;;;;;;;12.23;6.47;;;;;;;;;;5055987;28;20020;-81
2022/02/17 03:49:03;;;;;;;9.75;5.50;;;;;;;;;;5073691;28;20496;-80
2022/02/17 03:51:29;;;;;;;12.35;5.97;;;;;;;;;;5073686;28;20056;-80
2022/02/17 03:53:55;;;;;;;10.38;6.00;;;;;;;;;;5055796;28;20040;-79
2022/02/17 03:56:22;;;;;;;9.90;4.50;;;;;;;;;;5055770;28;20025;-80
2022/02/17 03:59:00;;;;;;;9.85;5.25;;;;;;;;;;5073833;28;20111;-80
2022/02/17 04:01:27;;;;;;;9.40;5.13;;;;;;;;;;5055744;28;20028;-81
2022/02/17 04:03:53;;;;;;;10.57;5.10;;;;;;;;;;5055491;28;20032;-81
2022/02/17 04:06:19;;;;;;;7.95;5.00;;;;;;;;;;5055812;28;20025;-85
2022/02/17 04:08:45;;;;;;;12.63;4.68;;;;;;;;;;5073627;28;20025;-81
2022/02/17 04:11:11;;;;;;;8.45;4.43;;;;;;;;;;5073864;28;20028;-80
2022/02/17 04:13:38;;;;;;;9.18;4.50;;;;;;;;;;5073628;28;20031;-81
2022/02/17 04:16:04;;;;;;;9.50;3.92;;;;;;;;;;5055408;28;20045;-81
2022/02/17 04:18:30;;;;;;;8.43;3.88;;;;;;;;;;5055582;28;20039;-81
2022/02/17 04:20:56;;;;;;;7.05;3.60;;;;;;;;;;5073427;28;20473;-81
2022/02/17 04:23:23;;;;;;;7.97;4.28;;;;;;;;;;5073492;28;20033;-81
2022/02/17 04:25:49;;;;;;;7.60;3.40;;;;;;;;;;5055805;28;20116;-82
2022/02/17 04:28:15;;;;;;;6.88;3.58;;;;;;;;;;5055422;28;20036;-82
2022/02/17 04:30:41;;;;;;;6.75;3.38;;;;;;;;;;5055290;28;20408;-81
2022/02/17 04:33:07;;;;;;;5.70;2.72;;;;;;;;;;5073455;28;20029;-81
2022/02/17 04:35:33;;;;;;;6.50;3.33;;;;;;;;;;5073553;28;20458;-81
2022/02/17 04:38:00;;;;;;;6.53;3.30;;;;;;;;;;5073317;28;20103;-81
2022/02/17 04:43:10;;;;;;;7.22;2.92;;;;;;;;;;5073540;28;20496;-81
2022/02/17 04:45:37;;;;;;;6.07;2.92;;;;;;;;;;5058194;28;20016;-82
2022/02/17 04:48:04;;;;;;;7.28;3.33;;;;;;;;;;5077545;28;20390;-82
2022/02/17 04:50:31;;;;;;;6.30;2.90;;;;;;;;;;5059410;28;20025;-82
2022/02/17 04:52:57;;;;;;;6.80;3.13;;;;;;;;;;5077576;28;20453;-82
2022/02/17 04:55:23;;;;;;;6.80;3.58;;;;;;;;;;5059202;28;20033;-81
2022/02/17 04:57:50;;;;;;;8.35;3.88;;;;;;;;;;5059258;28;20131;-80
2022/02/17 05:00:16;;;;;;;8.10;3.92;;;;;;;;;;5059137;28;20025;-82
2022/02/17 05:02:43;;;;;;;7.63;4.28;;;;;;;;;;5059190;28;20025;-81
2022/02/17 05:05:10;;;;;;;8.57;4.63;;;;;;;;;;5059228;28;20034;-81
2022/02/17 05:07:36;;;;;;;6.30;3.75;;;;;;;;;;5059222;28;20025;-81
2022/02/17 05:10:03;;;;;;;8.55;3.95;;;;;;;;;;5076284;28;20393;-80
2022/02/17 05:12:29;;;;;;;6.68;3.95;;;;;;;;;;5077098;28;20017;-81
2022/02/17 05:14:55;;;;;;;8.27;4.35;;;;;;;;;;5059737;28;20091;-81
2022/02/17 05:17:21;;;;;;;8.10;4.15;;;;;;;;;;5064475;28;20025;-81
2022/02/17 05:19:49;;;;;;;8.68;4.38;;;;;;;;;;5061679;28;20103;-81
2022/02/17 05:22:15;;;;;;;6.63;3.75;;;;;;;;;;5077088;28;20032;-81
2022/02/17 05:24:41;;;;;;;8.57;4.20;;;;;;;;;;5076962;28;20492;-81
2022/02/17 05:27:07;;;;;;;6.75;3.50;;;;;;;;;;5058808;28;20504;-84
2022/02/17 05:29:33;;;;;;;7.43;3.95;;;;;;;;;;5059002;28;20029;-82
2022/02/17 05:31:59;;;;;;;6.15;3.70;;;;;;;;;;5058802;28;20048;-87
2022/02/17 05:34:26;;;;;;;8.50;3.88;;;;;;;;;;5058644;28;20106;-81
2022/02/17 05:36:53;;;;;;;6.93;3.70;;;;;;;;;;5076534;28;20028;-81
2022/02/17 05:39:19;;;;;;;7.38;3.90;;;;;;;;;;5058789;28;20523;-83
2022/02/17 05:41:45;;;;;;;7.88;3.83;;;;;;;;;;5058241;28;20032;-83
2022/02/17 05:44:11;;;;;;;8.93;4.07;;;;;;;;;;5058198;28;20085;-84
2022/02/17 05:46:37;;;;;;;7.85;3.83;;;;;;;;;;5058077;28;20094;-82
2022/02/17 05:49:04;;;;;;;7.32;4.20;;;;;;;;;;5057854;28;20067;-82
2022/02/17 05:51:30;;;;;;;7.22;3.92;;;;;;;;;;5058129;28;20028;-82
2022/02/17 05:53:56;;;;;;;9.98;5.13;;;;;;;;;;5058073;28;20098;-82
2022/02/17 05:56:22;;;;;;;9.48;4.72;;;;;;;;;;5057428;28;20059;-83
2022/02/17 05:58:48;;;;;;;9.25;4.95;;;;;;;;;;5057866;28;20052;-83
2022/02/17 06:01:14;;;;;;;9.02;4.63;;;;;;;;;;5057812;28;20083;-82
2022/02/17 06:03:40;;;;;;;8.38;4.70;;;;;;;;;;5057873;28;20035;-84
2022/02/17 06:06:06;;;;;;;9.18;5.10;;;;;;;;;;5076076;28;20058;-83
2022/02/17 06:08:33;;;;;;;9.98;5.22;;;;;;;;;;5057991;28;20036;-83
2022/02/17 06:10:59;;;;;;;9.63;4.78;;;;;;;;;;5076112;28;20033;-83
2022/02/17 06:13:25;;;;;;;10.32;5.82;;;;;;;;;;5064603;28;20033;-83
2022/02/17 06:15:51;;;;;;;10.98;5.93;;;;;;;;;;5063426;28;20044;-84
2022/02/17 06:18:17;;;;;;;12.07;6.25;;;;;;;;;;5075743;28;20481;-84
2022/02/17 06:20:43;;;;;;;13.48;5.65;;;;;;;;;;5057322;28;20044;-83
2022/02/17 06:23:10;;;;;;;11.57;5.43;;;;;;;;;;5075977;28;20090;-81
2022/02/17 06:25:36;;;;;;;11.43;5.65;;;;;;;;;;5057688;28;20024;-81
2022/02/17 06:28:03;;;;;;;13.00;5.57;;;;;;;;;;5057441;28;20036;-90
2022/02/17 06:30:30;;;;;;;14.40;6.40;;;;;;;;;;5076187;28;20017;-82
2022/02/17 06:32:56;;;;;;;9.00;5.50;;;;;;;;;;5057782;28;20434;-80
2022/02/17 06:35:29;;;;;;;10.55;6.00;;;;;;;;;;5075847;28;20477;-79
2022/02/17 06:37:55;;;;;;;12.20;5.78;;;;;;;;;;5057692;28;20054;-80
2022/02/17 06:40:22;;;;;;;11.85;6.10;;;;;;;;;;5075145;28;20037;-80
2022/02/17 06:42:48;;;;;;;14.18;6.80;;;;;;;;;;5058205;28;20144;-82
2022/02/17 06:45:14;;;;;;;11.15;6.03;;;;;;;;;;5075275;28;20035;-79
2022/02/17 06:47:41;;;;;;;10.68;6.05;;;;;;;;;;5058057;28;20023;-82
2022/02/17 06:50:09;;;;;;;11.48;6.45;;;;;;;;;;5057999;28;20053;-81
2022/02/17 06:52:35;;;;;;;15.55;6.68;;;;;;;;;;5057779;28;20062;-80
2022/02/17 06:55:02;;;;;;;15.27;6.97;;;;;;;;;;5056970;28;20025;-79
2022/02/17 06:57:28;;;;;;;10.63;6.03;;;;;;;;;;5115442;22;20009;-81
2022/02/17 06:59:54;;;;;;;13.40;6.70;;;;;;;;;;5034941;28;20041;-90
2022/02/17 07:02:24;;;;;;;12.88;6.50;;;;;;;;;;5051440;28;20048;-81
2022/02/17 07:04:50;;;;;;;11.20;6.63;;;;;;;;;;5050468;28;20044;-84
2022/02/17 07:07:17;;;;;;;11.25;6.70;;;;;;;;;;5035452;28;20029;-84
2022/02/17 07:09:43;;;;;;;12.63;7.10;;;;;;;;;;5049651;28;20397;-79
2022/02/17 07:12:09;;;;;;;13.32;7.00;;;;;;;;;;5050130;28;20026;-80
2022/02/17 07:14:36;;;;;;;13.82;6.38;;;;;;;;;;5034754;28;20033;-83
2022/02/17 07:17:02;;;;;;;12.05;6.72;;;;;;;;;;5049964;28;20025;-81
2022/02/17 07:19:28;;;;;;;14.68;7.35;;;;;;;;;;5050354;28;20402;-81
2022/02/17 07:21:54;;;;;;;19.65;7.85;;;;;;;;;;5034068;28;20040;-84
2022/02/17 07:24:21;;;;;;;14.40;7.50;;;;;;;;;;5049658;28;20498;-82
2022/02/17 07:26:47;;;;;;;12.98;6.82;;;;;;;;;;5050216;28;20080;-83
2022/02/17 07:29:14;;;;;;;13.10;6.72;;;;;;;;;;5034495;28;20116;-82
2022/02/17 07:31:40;;;;;;;12.52;7.00;;;;;;;;;;5034175;28;20031;-84
2022/02/17 07:34:07;;;;;;;13.57;6.57;;;;;;;;;;5034205;28;20109;-80
2022/02/17 07:36:33;;;;;;;10.85;5.40;;;;;;;;;;5034116;28;20022;-83
2022/02/17 07:38:59;;;;;;;9.77;4.90;;;;;;;;;;5034310;28;20037;-82
2022/02/17 07:41:28;;;;;;;10.00;4.53;;;;;;;;;;5034243;28;20030;-82
2022/02/17 07:43:54;;;;;;;7.07;3.28;;;;;;;;;;5033794;28;20026;-82
2022/02/17 07:46:20;;;;;;;5.70;2.33;;;;;;;;;;5034114;28;20068;-82
2022/02/17 07:48:49;;;;;;;6.82;3.65;;;;;;;;;;5034259;28;20041;-81
2022/02/17 07:51:16;;;;;;;9.05;3.10;;;;;;;;;;5033966;28;20013;-81
2022/02/17 07:53:42;;;;;;;6.82;3.05;;;;;;;;;;5033785;28;20377;-80
2022/02/17 07:56:08;;;;;;;6.68;2.75;;;;;;;;;;5033925;28;20017;-81
2022/02/17 07:58:35;;;;;;;9.00;4.72;;;;;;;;;;5033754;28;20061;-82
2022/02/17 08:01:02;;;;;;;7.78;4.13;;;;;;;;;;5033870;28;20032;-80
2022/02/17 08:03:28;;;;;;;7.93;4.18;;;;;;;;;;5033796;28;20018;-80
2022/02/17 08:05:54;;;;;;;7.25;3.35;;;;;;;;;;5049088;28;20382;-80
2022/02/17 08:08:20;;;;;;;10.15;4.68;;;;;;;;;;5048723;28;20041;-81
2022/02/17 08:10:46;;;;;;;9.93;5.03;;;;;;;;;;5033625;28;20021;-80
2022/02/17 08:13:13;;;;;;;8.38;4.22;;;;;;;;;;5048796;28;20029;-81
2022/02/17 08:15:40;;;;;;;9.13;4.65;;;;;;;;;;5048875;28;20032;-80
2022/02/17 08:18:07;;;;;;;8.05;3.85;;;;;;;;;;5048519;28;20025;-80
2022/02/17 08:20:33;;;;;;;7.22;3.45;;;;;;;;;;5048273;28;20029;-80
2022/02/17 08:22:59;;;;;;;8.95;4.32;;;;;;;;;;5048762;28;20021;-81
2022/02/17 08:25:25;;;;;;;8.13;4.05;;;;;;;;;;5048722;28;20025;-82
2022/02/17 08:27:52;;;;;;;6.75;3.10;;;;;;;;;;5048951;28;20428;-82
2022/02/17 08:30:20;;;;;;;4.10;1.88;;;;;;;;;;5048524;28;20053;-82
2022/02/17 08:32:46;;;;;;;9.15;3.08;;;;;;;;;;5048569;28;20025;-80
2022/02/17 08:35:13;;;;;;;6.40;2.53;;;;;;;;;;5033350;28;20029;-82
2022/02/17 08:37:43;;;;;;;4.13;2.03;;;;;;;;;;5048015;28;20025;-81
2022/02/17 08:40:10;;;;;;;4.63;1.70;;;;;;;;;;5033371;28;20025;-82
2022/02/17 08:42:36;;;;;;;5.20;1.65;;;;;;;;;;5048665;28;20080;-82
2022/02/17 08:45:03;;;;;;;4.05;1.50;;;;;;;;;;5048422;28;20022;-81
2022/02/17 08:47:29;;;;;;;2.92;1.30;;;;;;;;;;5047753;28;20107;-79
2022/02/17 08:49:55;;;;;;;4.55;1.58;;;;;;;;;;5048157;28;20068;-79
2022/02/17 08:52:21;;;;;;;5.35;1.52;;;;;;;;;;5032844;28;20109;-80
2022/02/17 08:54:48;;;;;;;2.40;1.13;;;;;;;;;;5048287;28;20025;-80
2022/02/17 08:57:14;;;;;;;2.13;1.02;;;;;;;;;;5047989;28;20051;-80
2022/02/17 08:59:41;;;;;;;1.73;0.73;;;;;;;;;;5048024;28;20053;-81
2022/02/17 09:02:07;;;;;;;1.63;0.70;;;;;;;;;;5048070;28;20386;-80
2022/02/17 09:04:33;;;;;;;0.98;0.30;;;;;;;;;;5048280;28;20053;-83
2022/02/17 09:07:00;;;;;;;0.43;0.17;;;;;;;;;;5047936;28;20022;-81
2022/02/17 09:09:26;;;;;;;0.75;0.20;;;;;;;;;;5032665;28;20038;-81
2022/02/17 09:11:53;;;;;;;0.43;0.20;;;;;;;;;;5048189;28;20022;-80
2022/02/17 09:14:19;;;;;;;0.00;0.00;;;;;;;;;;5047840;28;20030;-81
2022/02/17 09:16:46;;;;;;;2.33;0.20;;;;;;;;;;5048068;28;20101;-82
2022/02/17 09:19:12;;;;;;;0.00;0.00;;;;;;;;;;5048293;28;20029;-87
2022/02/17 09:21:38;;;;;;;0.30;0.10;;;;;;;;;;5048149;28;20060;-82
2022/02/17 09:24:05;;;;;;;0.45;0.20;;;;;;;;;;5049444;28;20385;-81
2022/02/17 09:26:36;;;;;;;2.08;0.93;;;;;;;;;;5048821;28;20036;-81
2022/02/17 09:29:02;;;;;;;4.50;1.40;;;;;;;;;;5050774;28;20036;-82
2022/02/17 09:31:28;;;;;;;3.00;1.50;;;;;;;;;;5035847;28;20043;-81
2022/02/17 09:33:54;;;;;;;2.28;0.73;;;;;;;;;;5038624;28;20021;-80
2022/02/17 09:36:21;;;;;;;0.50;0.20;;;;;;;;;;5038554;28;20029;-81
2022/02/17 09:38:48;;;;;;;3.50;1.77;;;;;;;;;;5038152;28;20083;-83
2022/02/17 09:41:16;;;;;;;1.50;0.73;;;;;;;;;;5056431;28;20351;-82
2022/02/17 09:43:44;;;;;;;0.73;0.25;;;;;;;;;;5038260;28;20025;-83
2022/02/17 09:46:14;;;;;;;2.65;1.30;;;;;;;;;;5037771;28;20029;-82
2022/02/17 09:48:43;;;;;;;1.15;0.30;;;;;;;;;;5037884;28;20037;-85
2022/02/17 09:51:10;;;;;;;1.30;0.65;;;;;;;;;;5055262;28;20508;-81
2022/02/17 09:53:37;;;;;;;5.97;2.17;;;;;;;;;;5055765;28;20096;-81
2022/02/17 09:56:05;;;;;;;0.95;0.28;;;;;;;;;;5055924;28;20025;-82
2022/02/17 09:58:32;;;;;;;1.88;0.25;;;;;;;;;;5037720;28;20405;-82
2022/02/17 10:00:58;;;;;;;0.80;0.20;;;;;;;;;;5038068;28;20499;-80
2022/02/17 10:03:29;;;;;;;0.08;0.00;;;;;;;;;;5038067;28;20021;-80
2022/02/17 10:06:11;;;;;;;0.20;0.10;;;;;;;;;;5038000;28;20064;-80
2022/02/17 10:08:38;;;;;;;0.10;0.07;;;;;;;;;;5038072;28;20029;-80
2022/02/17 10:11:05;;;;;;;0.20;0.10;;;;;;;;;;5037604;28;20028;-82
2022/02/17 10:13:31;;;;;;;0.25;0.10;;;;;;;;;;5037463;28;20401;-81
2022/02/17 10:24:47;;;;;;;2.20;0.40;;;;;;;;;;5036461;28;20454;-82
2022/02/17 10:27:18;;;;;;;1.50;0.20;;;;;;;;;;5043089;28;20045;-80
2022/02/17 10:30:07;;;;;;;1.02;0.20;;;;;;;;;;5046440;28;20452;-82
2022/02/17 10:32:33;;;;;;;0.77;0.08;;;;;;;;;;5045820;28;20107;-81
2022/02/17 10:35:15;;;;;;;2.35;0.30;;;;;;;;;;5030419;28;20030;-81
2022/02/17 10:37:55;;;;;;;1.75;0.28;;;;;;;;;;5045810;28;20025;-81
2022/02/17 10:40:31;;;;;;;0.82;0.20;;;;;;;;;;5045933;28;20029;-82
2022/02/17 10:43:00;;;;;;;0.95;0.25;;;;;;;;;;5045419;28;20132;-80
2022/02/17 10:45:33;;;;;;;1.40;0.20;;;;;;;;;;5030197;28;20018;-81
2022/02/17 10:48:17;;;;;;;2.10;0.40;;;;;;;;;;5030500;28;20104;-82
2022/02/17 10:50:46;;;;;;;1.20;0.30;;;;;;;;;;5045787;28;20033;-80
2022/02/17 10:53:19;;;;;;;1.35;0.20;;;;;;;;;;5049397;28;20042;-81
2022/02/17 10:55:59;;;;;;;1.48;0.10;;;;;;;;;;5046113;28;20478;-81
2022/02/17 10:58:30;;;;;;;0.47;0.20;;;;;;;;;;5045309;28;20510;-80
2022/02/17 11:01:00;;;;;;;0.30;0.20;;;;;;;;;;5044839;28;20021;-80
2022/02/17 11:03:30;;;;;;;1.00;0.38;;;;;;;;;;5030027;28;20037;-80
2022/02/17 11:05:56;;;;;;;0.22;0.10;;;;;;;;;;5045708;28;20045;-80
2022/02/17 11:08:23;;;;;;;0.57;0.10;;;;;;;;;;5045387;28;20104;-80
2022/02/17 11:10:49;;;;;;;1.40;0.30;;;;;;;;;;5045027;28;20156;-81
2022/02/17 11:13:22;;;;;;;0.30;0.10;;;;;;;;;;5045281;28;20030;-79
2022/02/17 11:15:49;;;;;;;2.80;0.20;;;;;;;;;;5045196;28;20123;-79
2022/02/17 11:18:16;;;;;;;1.75;0.32;;;;;;;;;;5044684;28;20049;-79
2022/02/17 11:20:43;;;;;;;4.50;0.32;;;;;;;;;;5045055;28;20532;-80
2022/02/17 11:23:09;;;;;;;0.40;0.13;;;;;;;;;;5044538;28;20050;-80
2022/02/17 11:25:36;;;;;;;1.05;0.20;;;;;;;;;;5029851;28;20057;-80
2022/02/17 11:28:10;;;;;;;3.08;0.30;;;;;;;;;;5044584;28;20026;-79
2022/02/17 11:30:36;;;;;;;;;;;;;;;;;;5045166;28;20394;-80
2022/02/17 11:33:11;;;;;;;0.50;0.00;;;;;;;;;;5044937;28;19913;-80
2022/02/17 11:35:37;;;;;;;2.38;0.30;;;;;;;;;;5034189;28;20025;-80
2022/02/17 11:38:23;;;;;;;2.15;1.25;;;;;;;;;;5016383;28;20473;-81
2022/02/17 11:41:00;;;;;;;0.88;0.15;;;;;;;;;;5031655;28;20025;-80
2022/02/17 11:43:33;;;;;;;1.95;0.30;;;;;;;;;;5031616;28;20022;-81
2022/02/17 11:45:59;;;;;;;2.40;0.40;;;;;;;;;;5031654;28;20040;-80
2022/02/17 11:48:42;;;;;;;1.23;0.20;;;;;;;;;;5016386;28;20026;-81
2022/02/17 11:51:22;;;;;;;0.68;0.30;;;;;;;;;;5016225;28;20030;-80
2022/02/17 11:53:49;;;;;;;0.75;0.22;;;;;;;;;;5031437;28;20038;-81
2022/02/17 11:58:43;;;;;;;4.45;0.70;;;;;;;;;;5016108;28;20030;-80
2022/02/17 12:01:32;;;;;;;2.00;0.30;;;;;;;;;;5031377;28;20422;-81
2022/02/17 12:04:17;;;;;;;1.70;0.40;;;;;;;;;;5015848;28;20030;-81
2022/02/17 12:06:47;;;;;;;2.28;0.20;;;;;;;;;;5031002;28;20029;-80
2022/02/17 12:09:35;;;;;;;3.78;0.68;;;;;;;;;;5031040;28;20044;-80
2022/02/17 12:12:10;;;;;;;0.65;0.30;;;;;;;;;;5031606;28;20029;-80
2022/02/17 12:14:37;;;;;;;3.67;0.45;;;;;;;;;;5030501;28;20029;-79
2022/02/17 12:17:04;;;;;;;1.70;0.45;;;;;;;;;;5031026;28;20040;-80
2022/02/17 12:19:35;;;;;;;6.13;0.40;;;;;;;;;;5030915;28;20065;-81
2022/02/17 12:22:08;;;;;;;1.52;0.25;;;;;;;;;;5016093;28;20485;-80
2022/02/17 12:24:37;;;;;;;2.20;0.20;;;;;;;;;;5030519;28;20161;-80
2022/02/17 12:27:03;;;;;;;1.23;0.22;;;;;;;;;;5030774;28;20482;-80
2022/02/17 12:29:32;;;;;;;1.88;0.65;;;;;;;;;;5030802;28;20058;-80
2022/02/17 12:31:59;;;;;;;1.42;0.30;;;;;;;;;;5030521;28;20030;-81
2022/02/17 12:34:26;;;;;;;4.07;0.65;;;;;;;;;;5015353;28;20038;-80
2022/02/17 12:36:52;;;;;;;2.03;0.20;;;;;;;;;;5030714;28;20386;-81
2022/02/17 12:39:19;;;;;;;1.27;0.22;;;;;;;;;;5030647;28;20529;-81
2022/02/17 12:42:14;;;;;;;0.95;0.30;;;;;;;;;;5030459;28;20475;-80
2022/02/17 12:44:42;;;;;;;1.67;0.30;;;;;;;;;;4997591;28;20045;-81
2022/02/17 12:47:11;;;;;;;3.08;0.50;;;;;;;;;;5014232;28;20076;-81
2022/02/17 12:49:37;;;;;;;5.07;0.65;;;;;;;;;;5015208;28;20471;-82
2022/02/17 12:52:07;;;;;;;2.28;0.40;;;;;;;;;;5014873;28;20034;-80
2022/02/17 12:54:33;;;;;;;0.88;0.28;;;;;;;;;;5030117;28;20048;-81
2022/02/17 12:57:06;;;;;;;2.80;0.82;;;;;;;;;;5030072;28;20025;-81
2022/02/17 12:59:32;;;;;;;1.20;0.30;;;;;;;;;;5015178;28;20038;-81
2022/02/17 13:01:59;;;;;;;2.83;0.30;;;;;;;;;;5014504;28;20108;-81
2022/02/17 13:04:26;;;;;;;2.88;0.40;;;;;;;;;;5030151;28;20113;-81
2022/02/17 13:06:56;;;;;;;1.65;0.40;;;;;;;;;;5030121;28;20255;-81
2022/02/17 13:09:32;;;;;;;2.53;0.50;;;;;;;;;;5030246;28;20057;-81
2022/02/17 13:11:59;;;;;;;2.25;0.45;;;;;;;;;;5030201;28;20502;-81
2022/02/17 13:14:28;;;;;;;2.97;0.43;;;;;;;;;;5014652;28;20038;-82
2022/02/17 13:17:01;;;;;;;8.80;0.60;;;;;;;;;;5029783;28;20033;-81
2022/02/17 13:19:42;;;;;;;4.35;0.40;;;;;;;;;;5014917;28;20037;-82
2022/02/17 13:22:15;;;;;;;4.15;0.70;;;;;;;;;;5029984;28;20037;-79
2022/02/17 13:24:42;;;;;;;3.83;0.57;;;;;;;;;;5014500;28;20100;-83
2022/02/17 13:27:09;;;;;;;3.00;0.68;;;;;;;;;;5029574;28;20041;-82
2022/02/17 13:29:49;;;;;;;2.40;0.65;;;;;;;;;;5029900;28;20112;-82
2022/02/17 13:32:15;;;;;;;5.70;0.70;;;;;;;;;;5029669;28;20022;-83
2022/02/17 13:34:41;;;;;;;1.05;0.20;;;;;;;;;;5029614;28;20048;-82
2022/02/17 13:37:08;;;;;;;2.92;0.47;;;;;;;;;;5014629;28;20045;-82
2022/02/17 13:39:34;;;;;;;1.98;0.45;;;;;;;;;;5029565;28;20037;-82
2022/02/17 13:42:02;;;;;;;2.65;0.55;;;;;;;;;;5029416;28;20026;-79
2022/02/17 13:44:46;;;;;;;1.75;0.60;;;;;;;;;;5029303;28;20116;-79
2022/02/17 13:47:13;;;;;;;1.75;0.50;;;;;;;;;;5028966;28;20478;-80
2022/02/17 13:49:41;;;;;;;4.35;0.65;;;;;;;;;;5013782;28;20045;-80
2022/02/17 13:52:07;;;;;;;5.40;1.02;;;;;;;;;;5013416;28;20026;-81
2022/02/17 13:54:52;;;;;;;2.42;0.60;;;;;;;;;;5028886;28;20418;-81
2022/02/17 13:57:22;;;;;;;3.92;0.45;;;;;;;;;;5028725;28;20064;-80
2022/02/17 13:59:49;;;;;;;3.85;0.68;;;;;;;;;;5028913;28;20104;-80
2022/02/17 14:02:25;;;;;;;5.25;0.73;;;;;;;;;;5028970;28;20037;-80
2022/02/17 14:05:07;;;;;;;1.38;0.52;;;;;;;;;;5028844;28;20112;-79
2022/02/17 14:07:39;;;;;;;3.95;0.65;;;;;;;;;;5013862;28;20026;-78
2022/02/17 14:10:06;;;;;;;9.48;0.90;;;;;;;;;;5013757;28;20026;-80
2022/02/17 14:12:39;;;;;;;1.40;0.32;;;;;;;;;;5013970;28;20076;-79
2022/02/17 14:15:46;;;;;;;6.68;0.88;;;;;;;;;;5025967;28;20042;-81
2022/02/17 14:18:39;;;;;;;3.08;0.75;;;;;;;;;;5013581;28;20545;-79
2022/02/17 14:24:48;;;;;;;3.60;0.60;;;;;;;;;;5013046;28;20052;-80
2022/02/17 14:27:17;;;;;;;2.40;0.45;;;;;;;;;;5028634;28;20037;-78
2022/02/17 14:29:46;;;;;;;3.28;0.52;;;;;;;;;;5013246;28;20034;-80
2022/02/17 14:32:33;;;;;;;;;;;;;;;;;;5013627;28;20494;-81
2022/02/17 14:35:11;;;;;;;3.15;0.77;;;;;;;;;;5028796;28;19967;-78
2022/02/17 14:37:51;;;;;;;5.47;0.68;;;;;;;;;;5012392;28;20037;-81
2022/02/17 14:40:19;;;;;;;4.75;0.60;;;;;;;;;;5013008;28;20033;-80
2022/02/17 14:42:50;;;;;;;5.50;0.60;;;;;;;;;;5027740;28;20026;-82
2022/02/17 14:45:38;;;;;;;14.65;0.93;;;;;;;;;;5015242;28;20040;-80
2022/02/17 14:48:08;;;;;;;11.02;0.82;;;;;;;;;;5013448;28;20522;-80
2022/02/17 14:50:35;;;;;;;3.85;0.70;;;;;;;;;;5035994;28;20034;-80
2022/02/17 14:53:29;;;;;;;7.22;1.00;;;;;;;;;;5032471;28;20037;-81
2022/02/17 14:59:20;;;;;;;8.77;1.00;;;;;;;;;;5015115;28;20539;-80
2022/02/17 15:01:47;;;;;;;7.10;0.82;;;;;;;;;;5047955;28;20382;-80
2022/02/17 15:04:13;;;;;;;2.95;0.57;;;;;;;;;;5048240;28;20033;-80
2022/02/17 15:06:39;;;;;;;2.45;0.77;;;;;;;;;;5048132;28;20022;-80